Time;durP1;ratioP1;P1;durP2;ratioP2;P2;SDS_P1;SDS_P2;PMS_P1;PMS_P2;Temp;Humidity;BMP_temperature;BMP_pressure;BME280_temperature;BME280_humidity;BME280_pressure;Samples;Min_cycle;Max_cycle;Signal;HPM_P1;HPM_P2
2023/08/14 00:00:10;;;;;;;11.93;4.85;;;18.70;99.90;;;;;;2507108;23;20011;-73
2023/08/14 00:01:10;;;;;;;7.00;4.40;;;18.70;99.90;;;;;;2506614;23;20412;-73
2023/08/14 00:02:11;;;;;;;6.55;4.38;;;18.70;99.90;;;;;;2506190;23;20676;-73
2023/08/14 00:03:11;;;;;;;8.77;4.00;;;18.70;99.90;;;;;;2506855;23;20037;-73
2023/08/14 00:04:12;;;;;;;6.43;4.68;;;18.70;99.90;;;;;;2519479;23;19998;-73
2023/08/14 00:05:12;;;;;;;8.60;4.53;;;18.70;99.90;;;;;;2519610;23;20004;-73
2023/08/14 00:06:13;;;;;;;8.65;4.35;;;18.70;99.90;;;;;;2519594;23;20423;-73
2023/08/14 00:07:14;;;;;;;7.85;4.30;;;18.70;99.90;;;;;;2505915;23;20217;-73
2023/08/14 00:08:14;;;;;;;10.27;4.95;;;18.70;99.90;;;;;;2506757;23;20074;-73
2023/08/14 00:09:15;;;;;;;8.32;4.63;;;18.70;99.90;;;;;;2519538;23;20006;-73
2023/08/14 00:10:15;;;;;;;4.95;3.92;;;18.60;99.90;;;;;;2506858;23;20039;-73
2023/08/14 00:11:16;;;;;;;6.97;4.35;;;18.70;99.90;;;;;;2505433;23;20034;-73
2023/08/14 00:12:16;;;;;;;11.25;4.55;;;18.60;99.90;;;;;;2506626;23;20021;-73
2023/08/14 00:13:21;;;;;;;7.35;4.40;;;18.70;99.90;;;;;;2506878;23;20033;-72
2023/08/14 00:14:21;;;;;;;8.18;4.43;;;18.70;99.90;;;;;;2519589;23;20006;-72
2023/08/14 00:15:22;;;;;;;11.88;4.93;;;18.70;99.90;;;;;;2518687;23;20015;-73
2023/08/14 00:16:23;;;;;;;7.40;4.15;;;18.70;99.90;;;;;;2519417;23;20016;-73
2023/08/14 00:17:24;;;;;;;11.13;5.15;;;18.70;99.90;;;;;;2518538;23;20007;-73
2023/08/14 00:18:24;;;;;;;7.78;4.45;;;18.70;99.90;;;;;;2519726;23;20045;-73
2023/08/14 00:19:25;;;;;;;7.22;4.45;;;18.70;99.90;;;;;;2518779;23;20010;-73
2023/08/14 00:20:25;;;;;;;6.95;4.28;;;18.70;99.90;;;;;;2519414;23;20006;-73
2023/08/14 00:21:26;;;;;;;7.72;4.43;;;18.70;99.90;;;;;;2519226;23;20005;-73
2023/08/14 00:22:27;;;;;;;7.07;4.43;;;18.70;99.90;;;;;;2519241;23;20006;-73
2023/08/14 00:23:27;;;;;;;6.60;4.20;;;18.70;99.90;;;;;;2519309;23;20309;-73
2023/08/14 00:24:28;;;;;;;8.70;3.95;;;18.70;99.90;;;;;;2518156;23;20067;-73
2023/08/14 00:25:28;;;;;;;5.20;4.03;;;18.70;99.90;;;;;;2506094;23;20011;-73
2023/08/14 00:26:29;;;;;;;7.03;4.53;;;18.70;99.90;;;;;;2507387;23;20014;-73
2023/08/14 00:27:29;;;;;;;6.10;3.85;;;18.70;99.90;;;;;;2517982;23;20013;-73
2023/08/14 00:28:31;;;;;;;7.40;4.20;;;18.70;99.90;;;;;;2506444;23;20470;-73
2023/08/14 00:29:31;;;;;;;9.90;4.45;;;18.70;99.90;;;;;;2506977;23;20010;-73
2023/08/14 00:30:32;;;;;;;9.02;3.83;;;18.70;99.90;;;;;;2519142;23;20006;-73
2023/08/14 00:31:32;;;;;;;7.80;4.60;;;18.70;99.90;;;;;;2518964;23;20422;-73
2023/08/14 00:32:33;;;;;;;6.70;3.92;;;18.70;99.90;;;;;;2507033;23;20030;-73
2023/08/14 00:33:34;;;;;;;7.35;4.43;;;18.70;99.90;;;;;;2506567;23;20003;-73
2023/08/14 00:34:34;;;;;;;7.53;4.18;;;18.70;99.90;;;;;;2518863;23;20016;-73
2023/08/14 00:35:34;;;;;;;10.82;4.15;;;18.70;99.90;;;;;;2518609;23;20347;-73
2023/08/14 00:36:35;;;;;;;8.05;4.82;;;18.70;99.90;;;;;;2519121;23;20009;-73
2023/08/14 00:37:48;;;;;;;5.45;4.00;;;18.70;99.90;;;;;;2518860;23;20017;-73
2023/08/14 00:38:50;;;;;;;5.88;3.95;;;18.70;99.90;;;;;;2519729;23;20002;-73
2023/08/14 00:39:51;;;;;;;7.05;4.15;;;18.70;99.90;;;;;;2518239;23;20017;-73
2023/08/14 00:40:52;;;;;;;5.93;4.07;;;18.70;99.90;;;;;;2519783;23;19998;-73
2023/08/14 00:41:53;;;;;;;6.95;4.55;;;18.70;99.90;;;;;;2518740;23;20002;-73
2023/08/14 00:42:53;;;;;;;5.68;4.55;;;18.70;99.90;;;;;;2519183;23;20774;-73
2023/08/14 00:43:54;;;;;;;9.82;4.05;;;18.70;99.90;;;;;;2518177;23;20118;-72
2023/08/14 00:44:54;;;;;;;15.20;5.03;;;18.70;99.90;;;;;;2519236;23;20026;-73
2023/08/14 00:45:56;;;;;;;7.28;4.45;;;18.70;99.90;;;;;;2519348;23;20062;-73
2023/08/14 00:46:57;;;;;;;6.90;4.40;;;18.70;99.90;;;;;;2517071;23;19999;-72
2023/08/14 00:47:58;;;;;;;8.18;4.53;;;18.70;99.90;;;;;;2519197;23;20335;-73
2023/08/14 00:48:59;;;;;;;7.07;3.88;;;18.70;99.90;;;;;;2519366;23;20020;-73
2023/08/14 00:50:00;;;;;;;6.45;4.00;;;18.80;99.90;;;;;;2518585;23;20006;-73
2023/08/14 00:51:01;;;;;;;8.63;4.25;;;18.70;99.90;;;;;;2505898;23;20866;-73
2023/08/14 00:52:01;;;;;;;9.15;4.00;;;18.70;99.90;;;;;;2506441;23;20410;-73
2023/08/14 00:53:03;;;;;;;5.57;4.22;;;18.70;99.90;;;;;;2505800;23;20093;-73
2023/08/14 00:54:04;;;;;;;5.80;3.80;;;18.70;99.90;;;;;;2507138;23;20086;-73
2023/08/14 00:55:08;;;;;;;10.30;4.47;;;18.70;99.90;;;;;;2518342;23;20002;-73
2023/08/14 00:56:08;;;;;;;10.73;4.60;;;18.70;99.90;;;;;;2518466;23;20003;-73
2023/08/14 00:57:09;;;;;;;9.20;4.70;;;18.70;99.90;;;;;;2506254;23;20010;-73
2023/08/14 00:58:09;;;;;;;6.93;4.20;;;18.70;99.90;;;;;;2506047;23;20059;-73
2023/08/14 00:59:10;;;;;;;9.05;4.75;;;18.70;99.90;;;;;;2519498;23;20494;-73
2023/08/14 01:00:13;;;;;;;7.85;4.30;;;18.70;99.90;;;;;;2518627;23;20002;-73
2023/08/14 01:01:14;;;;;;;8.60;4.55;;;18.70;99.90;;;;;;2519036;23;19998;-73
2023/08/14 01:02:16;;;;;;;8.82;4.18;;;18.70;99.90;;;;;;2519503;23;20007;-73
2023/08/14 01:03:19;;;;;;;8.88;4.30;;;18.70;99.90;;;;;;2519213;23;20003;-73
2023/08/14 01:04:20;;;;;;;7.93;4.32;;;18.70;99.90;;;;;;2519145;23;20002;-73
2023/08/14 01:05:22;;;;;;;7.05;3.92;;;18.70;99.90;;;;;;2506768;23;20436;-73
2023/08/14 01:06:23;;;;;;;6.53;4.13;;;18.70;99.90;;;;;;2507028;23;20003;-73
2023/08/14 01:07:24;;;;;;;5.32;3.95;;;18.60;99.90;;;;;;2518373;23;20078;-73
2023/08/14 01:08:25;;;;;;;6.53;4.30;;;18.60;99.90;;;;;;2519175;23;20010;-73
2023/08/14 01:09:25;;;;;;;5.75;3.70;;;18.60;99.90;;;;;;2518774;23;20009;-73
2023/08/14 01:10:44;;;;;;;9.13;4.15;;;18.60;99.90;;;;;;2519439;23;19998;-73
2023/08/14 01:11:56;;;;;;;8.20;4.53;;;18.60;99.90;;;;;;2506338;23;20039;-73
2023/08/14 01:13:20;;;;;;;8.70;4.28;;;18.60;99.90;;;;;;2509065;23;20003;-73
2023/08/14 01:14:29;;;;;;;7.18;3.78;;;18.60;99.90;;;;;;2518882;23;20009;-73
2023/08/14 01:15:34;;;;;;;6.30;3.80;;;18.60;99.90;;;;;;2519229;23;20013;-73
2023/08/14 01:16:39;;;;;;;5.63;3.70;;;18.60;99.90;;;;;;2518969;23;20086;-73
2023/08/14 01:17:48;;;;;;;8.00;3.70;;;18.60;99.90;;;;;;2517826;23;20006;-73
2023/08/14 01:18:51;;;;;;;7.03;3.63;;;18.60;99.90;;;;;;2518919;23;20013;-73
2023/08/14 01:19:54;;;;;;;5.32;3.53;;;18.50;99.90;;;;;;2505680;23;20018;-73
2023/08/14 01:21:16;;;;;;;5.13;3.80;;;18.60;99.90;;;;;;2506856;23;20014;-73
2023/08/14 01:22:30;;;;;;;6.10;3.75;;;18.60;99.90;;;;;;2518482;23;20006;-73
2023/08/14 01:23:40;;;;;;;6.57;3.88;;;18.50;99.90;;;;;;2519265;23;20095;-73
2023/08/14 01:24:59;;;;;;;6.88;4.13;;;18.50;99.90;;;;;;2519288;23;20017;-73
2023/08/14 01:26:00;;;;;;;5.20;3.72;;;18.50;99.90;;;;;;2518629;23;20002;-73
2023/08/14 01:27:02;;;;;;;7.10;3.80;;;18.50;99.90;;;;;;2518151;23;20455;-73
2023/08/14 01:28:03;;;;;;;6.88;3.47;;;18.50;99.90;;;;;;2519415;23;20470;-73
2023/08/14 01:29:03;;;;;;;5.57;3.22;;;18.50;99.90;;;;;;2518686;23;20646;-73
2023/08/14 01:30:05;;;;;;;7.57;3.47;;;18.50;99.90;;;;;;2505786;23;20069;-73
2023/08/14 01:31:05;;;;;;;6.22;3.80;;;18.50;99.90;;;;;;2506360;23;20807;-73
2023/08/14 01:32:06;;;;;;;4.72;3.53;;;18.50;99.90;;;;;;2505860;23;20425;-73
2023/08/14 01:33:06;;;;;;;7.32;3.30;;;18.50;99.90;;;;;;2506285;23;20035;-73
2023/08/14 01:34:07;;;;;;;10.85;3.55;;;18.50;99.90;;;;;;2519575;23;20005;-73
2023/08/14 01:35:08;;;;;;;6.50;3.83;;;18.50;99.90;;;;;;2504509;23;20452;-73
2023/08/14 01:36:17;;;;;;;7.50;3.92;;;18.50;99.90;;;;;;2506510;23;20380;-73
2023/08/14 01:37:32;;;;;;;8.68;3.72;;;18.50;99.90;;;;;;2518154;23;20453;-73
2023/08/14 01:38:49;;;;;;;4.65;3.53;;;18.50;99.90;;;;;;2519238;23;20033;-73
2023/08/14 01:39:53;;;;;;;5.63;3.47;;;18.40;99.90;;;;;;2503439;23;20368;-73
2023/08/14 01:41:12;;;;;;;5.60;3.50;;;18.50;99.90;;;;;;2507269;23;20010;-73
2023/08/14 01:42:20;;;;;;;5.10;3.38;;;18.50;99.90;;;;;;2519129;23;19998;-73
2023/08/14 01:43:36;;;;;;;9.45;4.05;;;18.40;99.90;;;;;;2518666;23;20002;-72
2023/08/14 01:44:40;;;;;;;6.55;3.78;;;18.40;99.90;;;;;;2519545;23;20006;-73
2023/08/14 01:45:41;;;;;;;6.93;3.65;;;18.40;99.90;;;;;;2518120;23;20013;-73
2023/08/14 01:46:43;;;;;;;5.10;3.22;;;18.40;99.90;;;;;;2519415;23;20699;-73
2023/08/14 01:47:46;;;;;;;5.00;3.30;;;18.40;99.90;;;;;;2518763;23;19999;-73
2023/08/14 01:48:49;;;;;;;7.57;3.55;;;18.40;99.90;;;;;;2518583;23;20006;-73
2023/08/14 01:49:51;;;;;;;6.38;3.50;;;18.40;99.90;;;;;;2518734;23;20695;-73
2023/08/14 01:50:53;;;;;;;6.47;3.15;;;18.40;99.90;;;;;;2518866;23;20017;-73
2023/08/14 01:51:54;;;;;;;4.57;3.20;;;18.40;99.90;;;;;;2518800;23;20058;-73
2023/08/14 01:52:56;;;;;;;6.88;3.80;;;18.40;99.90;;;;;;2519051;23;20034;-73
2023/08/14 01:53:57;;;;;;;5.13;3.47;;;18.40;99.90;;;;;;2519576;23;20006;-73
2023/08/14 01:55:01;;;;;;;8.48;3.90;;;18.40;99.90;;;;;;2518712;23;20010;-73
2023/08/14 01:56:01;;;;;;;6.25;2.95;;;18.40;99.90;;;;;;2519182;23;20013;-73
2023/08/14 01:57:02;;;;;;;3.85;2.78;;;18.40;99.90;;;;;;2517227;23;20427;-73
2023/08/14 01:58:03;;;;;;;10.20;3.78;;;18.40;99.90;;;;;;2506668;23;20003;-73
2023/08/14 01:59:03;;;;;;;6.57;3.15;;;18.40;99.90;;;;;;2494613;23;20099;-73
2023/08/14 02:00:07;;;;;;;7.35;3.38;;;18.40;99.90;;;;;;2505796;23;20030;-73
2023/08/14 02:01:08;;;;;;;5.75;3.55;;;18.40;99.90;;;;;;2518982;23;19995;-73
2023/08/14 02:02:11;;;;;;;4.93;3.08;;;18.40;99.90;;;;;;2505976;23;20003;-73
2023/08/14 02:03:11;;;;;;;7.22;2.95;;;18.40;99.90;;;;;;2505944;23;20007;-73
2023/08/14 02:04:12;;;;;;;6.82;2.95;;;18.30;99.90;;;;;;2519426;23;20077;-73
2023/08/14 02:05:12;;;;;;;4.82;2.78;;;18.40;99.90;;;;;;2518971;23;20002;-73
2023/08/14 02:06:13;;;;;;;9.27;3.85;;;18.40;99.90;;;;;;2519536;23;20026;-73
2023/08/14 02:07:13;;;;;;;7.63;3.72;;;18.40;99.90;;;;;;2518154;23;20034;-73
2023/08/14 02:08:14;;;;;;;10.75;3.83;;;18.40;99.90;;;;;;2518323;23;19998;-73
2023/08/14 02:09:14;;;;;;;8.48;3.63;;;18.40;99.90;;;;;;2516754;23;20006;-73
2023/08/14 02:10:15;;;;;;;6.63;3.20;;;18.30;99.90;;;;;;2518828;23;20350;-73
2023/08/14 02:11:15;;;;;;;6.78;3.28;;;18.30;99.90;;;;;;2518662;23;20009;-73
2023/08/14 02:12:16;;;;;;;6.90;3.45;;;18.30;99.90;;;;;;2506795;23;20327;-73
2023/08/14 02:13:16;;;;;;;6.65;3.55;;;18.30;99.90;;;;;;2504415;23;20007;-73
2023/08/14 02:14:17;;;;;;;7.63;3.83;;;18.30;99.90;;;;;;2519490;23;20006;-73
2023/08/14 02:15:20;;;;;;;6.10;3.35;;;18.30;99.90;;;;;;2505858;23;20010;-73
2023/08/14 02:16:20;;;;;;;4.38;2.92;;;18.30;99.90;;;;;;2506569;23;20011;-73
2023/08/14 02:17:21;;;;;;;6.60;3.63;;;18.30;99.90;;;;;;2517994;23;20073;-73
2023/08/14 02:18:22;;;;;;;4.45;3.30;;;18.30;99.90;;;;;;2518451;23;20431;-73
2023/08/14 02:19:22;;;;;;;6.20;3.33;;;18.30;99.90;;;;;;2506002;23;20396;-73
2023/08/14 02:20:23;;;;;;;6.60;3.80;;;18.30;99.90;;;;;;2506323;23;20010;-73
2023/08/14 02:21:24;;;;;;;6.55;3.35;;;18.30;99.90;;;;;;2519045;23;20029;-73
2023/08/14 02:22:25;;;;;;;4.07;2.58;;;18.30;99.90;;;;;;2519519;23;20076;-73
2023/08/14 02:23:25;;;;;;;7.00;3.38;;;18.30;99.90;;;;;;2519052;23;20010;-73
2023/08/14 02:24:26;;;;;;;8.30;3.63;;;18.30;99.90;;;;;;2505708;23;20007;-73
2023/08/14 02:25:26;;;;;;;9.13;3.75;;;18.30;99.90;;;;;;2506353;23;19999;-73
2023/08/14 02:26:27;;;;;;;6.78;2.85;;;18.20;99.90;;;;;;2506253;23;19999;-73
2023/08/14 02:27:27;;;;;;;6.75;3.50;;;18.20;99.90;;;;;;2505923;23;19999;-73
2023/08/14 02:28:28;;;;;;;8.30;3.38;;;18.20;99.90;;;;;;2518998;23;20613;-73
2023/08/14 02:29:28;;;;;;;4.05;3.05;;;18.20;99.90;;;;;;2519019;23;20007;-73
2023/08/14 02:30:29;;;;;;;5.32;3.17;;;18.20;99.90;;;;;;2506456;23;20031;-73
2023/08/14 02:31:29;;;;;;;5.30;3.15;;;18.20;99.90;;;;;;2506062;23;20003;-73
2023/08/14 02:32:30;;;;;;;5.50;3.42;;;18.20;99.90;;;;;;2519023;23;20003;-73
2023/08/14 02:33:31;;;;;;;6.45;3.22;;;18.20;99.90;;;;;;2517988;23;20006;-73
2023/08/14 02:34:47;;;;;;;5.57;2.85;;;18.20;99.90;;;;;;2519226;23;20077;-73
2023/08/14 02:35:48;;;;;;;6.90;3.05;;;18.20;99.90;;;;;;2518781;23;19998;-73
2023/08/14 02:36:48;;;;;;;6.28;3.03;;;18.10;99.90;;;;;;2518436;23;20042;-73
2023/08/14 02:37:49;;;;;;;6.13;3.22;;;18.10;99.90;;;;;;2517841;23;20003;-73
2023/08/14 02:38:49;;;;;;;8.15;3.10;;;18.10;99.90;;;;;;2519993;23;20023;-73
2023/08/14 02:39:50;;;;;;;3.70;2.75;;;18.10;99.90;;;;;;2519443;23;20006;-73
2023/08/14 02:40:50;;;;;;;11.13;3.70;;;18.10;99.90;;;;;;2520261;23;20569;-73
2023/08/14 02:41:51;;;;;;;7.22;3.50;;;18.00;99.90;;;;;;2519171;23;20376;-73
2023/08/14 02:42:51;;;;;;;4.53;2.80;;;18.00;99.90;;;;;;2507024;23;19999;-73
2023/08/14 02:43:52;;;;;;;9.18;3.35;;;18.00;99.90;;;;;;2506752;23;20458;-73
2023/08/14 02:44:53;;;;;;;10.43;4.05;;;18.10;99.90;;;;;;2519179;23;20069;-73
2023/08/14 02:45:54;;;;;;;8.73;3.53;;;18.00;99.90;;;;;;2519012;23;20013;-73
2023/08/14 02:46:56;;;;;;;5.25;3.22;;;18.00;99.90;;;;;;2518277;23;20094;-73
2023/08/14 02:47:56;;;;;;;6.55;3.90;;;18.00;99.90;;;;;;2519596;23;20006;-73
2023/08/14 02:48:57;;;;;;;3.33;2.70;;;18.00;99.90;;;;;;2519637;23;20074;-73
2023/08/14 02:49:57;;;;;;;4.03;3.20;;;17.90;99.90;;;;;;2506749;23;20071;-73
2023/08/14 02:50:58;;;;;;;6.63;3.85;;;18.00;99.90;;;;;;2507416;23;20073;-73
2023/08/14 02:51:59;;;;;;;6.28;3.35;;;17.90;99.90;;;;;;2519215;23;20054;-73
2023/08/14 02:52:59;;;;;;;5.07;3.10;;;17.90;99.90;;;;;;2520019;23;20081;-73
2023/08/14 02:54:00;;;;;;;5.30;3.40;;;17.90;99.90;;;;;;2519401;23;20054;-73
2023/08/14 02:55:00;;;;;;;6.32;3.35;;;17.90;99.90;;;;;;2519499;23;20018;-73
2023/08/14 02:56:01;;;;;;;5.10;3.47;;;17.90;99.90;;;;;;2520075;23;20018;-73
2023/08/14 02:57:01;;;;;;;5.95;4.20;;;17.90;99.90;;;;;;2518891;23;20002;-73
2023/08/14 02:58:02;;;;;;;6.13;3.55;;;17.90;99.90;;;;;;2519600;23;20030;-73
2023/08/14 02:59:03;;;;;;;8.50;3.55;;;17.90;99.90;;;;;;2507315;23;20066;-73
2023/08/14 03:00:04;;;;;;;7.40;3.40;;;17.80;99.90;;;;;;2506429;23;20015;-73
2023/08/14 03:01:05;;;;;;;7.28;3.50;;;17.80;99.90;;;;;;2520086;23;20013;-73
2023/08/14 03:02:05;;;;;;;5.55;3.40;;;17.80;99.90;;;;;;2520113;23;20729;-73
2023/08/14 03:03:06;;;;;;;10.18;4.07;;;17.80;99.90;;;;;;2519587;23;20002;-73
2023/08/14 03:04:06;;;;;;;4.20;2.90;;;17.80;99.90;;;;;;2519977;23;20009;-73
2023/08/14 03:05:07;;;;;;;8.00;3.65;;;17.80;99.90;;;;;;2519985;23;20033;-73
2023/08/14 03:06:08;;;;;;;7.18;3.20;;;17.80;99.90;;;;;;2519662;23;19999;-73
2023/08/14 03:07:09;;;;;;;6.80;3.10;;;17.80;99.90;;;;;;2519277;23;20003;-73
2023/08/14 03:08:09;;;;;;;5.35;3.25;;;17.80;99.90;;;;;;2518831;23;20003;-73
2023/08/14 03:09:10;;;;;;;7.07;3.50;;;17.80;99.90;;;;;;2520153;23;20033;-73
2023/08/14 03:10:11;;;;;;;5.63;3.42;;;17.70;99.90;;;;;;2519606;23;20024;-73
2023/08/14 03:11:11;;;;;;;6.45;3.67;;;17.70;99.90;;;;;;2519690;23;19999;-73
2023/08/14 03:12:12;;;;;;;6.43;3.60;;;17.70;99.90;;;;;;2506819;23;20325;-73
2023/08/14 03:13:12;;;;;;;6.53;3.75;;;17.70;99.90;;;;;;2506547;23;20013;-73
2023/08/14 03:14:13;;;;;;;8.95;3.80;;;17.70;99.90;;;;;;2518751;23;20126;-73
2023/08/14 03:15:14;;;;;;;6.93;3.42;;;17.70;99.90;;;;;;2519741;23;20002;-73
2023/08/14 03:16:14;;;;;;;10.13;4.30;;;17.60;99.90;;;;;;2519713;23;20010;-73
2023/08/14 03:17:15;;;;;;;6.40;3.60;;;17.60;99.90;;;;;;2518973;23;20017;-73
2023/08/14 03:18:15;;;;;;;7.80;3.70;;;17.60;99.90;;;;;;2519938;23;20015;-73
2023/08/14 03:19:16;;;;;;;5.97;3.53;;;17.60;99.90;;;;;;2519021;23;20101;-73
2023/08/14 03:20:16;;;;;;;6.70;3.38;;;17.60;99.90;;;;;;2519360;23;20010;-73
2023/08/14 03:21:17;;;;;;;6.30;3.83;;;17.60;99.90;;;;;;2519730;23;20026;-73
2023/08/14 03:22:17;;;;;;;6.82;3.55;;;17.60;99.90;;;;;;2519953;23;20025;-73
2023/08/14 03:23:18;;;;;;;7.05;3.38;;;17.60;99.90;;;;;;2519062;23;20577;-73
2023/08/14 03:24:19;;;;;;;7.00;3.58;;;17.50;99.90;;;;;;2519213;23;20006;-73
2023/08/14 03:25:20;;;;;;;6.70;3.35;;;17.60;99.90;;;;;;2518806;23;20007;-73
2023/08/14 03:26:20;;;;;;;6.30;2.88;;;17.60;99.90;;;;;;2519800;23;20054;-73
2023/08/14 03:27:21;;;;;;;7.70;3.85;;;17.60;99.90;;;;;;2518295;23;20007;-73
2023/08/14 03:28:21;;;;;;;10.50;4.22;;;17.60;99.90;;;;;;2519518;23;20006;-73
2023/08/14 03:29:22;;;;;;;9.43;4.25;;;17.50;99.90;;;;;;2519606;23;20006;-73
2023/08/14 03:30:23;;;;;;;8.02;4.18;;;17.50;99.90;;;;;;2519250;23;20018;-73
2023/08/14 03:31:23;;;;;;;5.30;3.70;;;17.50;99.90;;;;;;2519683;23;20346;-73
2023/08/14 03:32:24;;;;;;;6.03;3.42;;;17.50;99.90;;;;;;2518879;23;20002;-73
2023/08/14 03:33:24;;;;;;;5.30;3.28;;;17.50;99.90;;;;;;2506483;23;20098;-73
2023/08/14 03:34:25;;;;;;;6.38;3.20;;;17.50;99.90;;;;;;2507019;23;20007;-73
2023/08/14 03:35:25;;;;;;;6.03;3.38;;;17.50;99.90;;;;;;2519727;23;20446;-73
2023/08/14 03:36:26;;;;;;;7.63;3.67;;;17.40;99.90;;;;;;2519791;23;20006;-73
2023/08/14 03:37:26;;;;;;;9.82;4.10;;;17.40;99.90;;;;;;2519012;23;20006;-73
2023/08/14 03:38:27;;;;;;;9.15;3.65;;;17.40;99.90;;;;;;2506804;23;20011;-73
2023/08/14 03:39:27;;;;;;;7.10;3.70;;;17.40;99.90;;;;;;2494694;23;20034;-73
2023/08/14 03:40:29;;;;;;;5.70;3.03;;;17.40;99.90;;;;;;2506414;23;20079;-73
2023/08/14 03:41:30;;;;;;;8.00;3.58;;;17.40;99.90;;;;;;2518666;23;20010;-73
2023/08/14 03:42:30;;;;;;;6.32;3.40;;;17.40;99.90;;;;;;2518124;23;20007;-73
2023/08/14 03:43:31;;;;;;;13.55;4.47;;;17.30;99.90;;;;;;2519416;23;20026;-73
2023/08/14 03:44:32;;;;;;;7.95;3.67;;;17.40;99.90;;;;;;2519615;23;20078;-73
2023/08/14 03:45:32;;;;;;;4.72;3.03;;;17.40;99.90;;;;;;2519287;23;20035;-73
2023/08/14 03:46:33;;;;;;;5.95;3.05;;;17.40;99.90;;;;;;2519635;23;20737;-73
2023/08/14 03:47:33;;;;;;;7.65;3.70;;;17.40;99.90;;;;;;2518414;23;20057;-73
2023/08/14 03:48:34;;;;;;;8.73;3.83;;;17.30;99.90;;;;;;2519066;23;20046;-73
2023/08/14 03:49:34;;;;;;;10.15;4.00;;;17.30;99.90;;;;;;2518874;23;20054;-73
2023/08/14 03:50:35;;;;;;;8.88;3.75;;;17.30;99.90;;;;;;2519901;23;20780;-73
2023/08/14 03:51:35;;;;;;;10.00;3.58;;;17.30;99.90;;;;;;2519634;23;20003;-73
2023/08/14 03:52:36;;;;;;;5.13;3.28;;;17.30;99.90;;;;;;2519298;23;20445;-73
2023/08/14 03:53:36;;;;;;;7.82;3.90;;;17.30;99.90;;;;;;2506355;23;19999;-73
2023/08/14 03:54:37;;;;;;;6.13;3.40;;;17.20;99.90;;;;;;2506896;23;20066;-73
2023/08/14 03:55:37;;;;;;;6.03;3.70;;;17.20;99.90;;;;;;2519197;23;20355;-73
2023/08/14 03:56:38;;;;;;;7.93;3.60;;;17.20;99.90;;;;;;2506987;23;20013;-73
2023/08/14 03:57:38;;;;;;;9.40;4.38;;;17.20;99.90;;;;;;2506126;23;20003;-73
2023/08/14 03:58:39;;;;;;;10.52;3.58;;;17.20;99.90;;;;;;2519661;23;20414;-73
2023/08/14 03:59:39;;;;;;;6.78;3.85;;;17.20;99.90;;;;;;2519402;23;20002;-73
2023/08/14 04:00:40;;;;;;;3.88;3.15;;;17.20;99.90;;;;;;2518824;23;20003;-73
2023/08/14 04:01:43;;;;;;;6.82;2.85;;;17.20;99.90;;;;;;2519127;23;20073;-73
2023/08/14 04:02:43;;;;;;;6.70;3.65;;;17.20;99.90;;;;;;2519422;23;20090;-73
2023/08/14 04:03:44;;;;;;;6.82;3.63;;;17.20;99.90;;;;;;2519356;23;20010;-73
2023/08/14 04:04:44;;;;;;;6.00;3.78;;;17.20;99.90;;;;;;2519486;23;20407;-73
2023/08/14 04:05:45;;;;;;;6.50;3.80;;;17.10;99.90;;;;;;2519109;23;20034;-73
2023/08/14 04:06:47;;;;;;;6.90;3.25;;;17.20;99.90;;;;;;2518638;23;20755;-73
2023/08/14 04:07:47;;;;;;;4.35;3.10;;;17.10;99.90;;;;;;2518443;23;20006;-73
2023/08/14 04:08:48;;;;;;;7.47;3.38;;;17.10;99.90;;;;;;2519755;23;20009;-73
2023/08/14 04:09:49;;;;;;;5.95;3.38;;;17.10;99.90;;;;;;2518551;23;20396;-73
2023/08/14 04:10:55;;;;;;;5.30;3.40;;;17.10;99.90;;;;;;2506932;23;20014;-73
2023/08/14 04:11:55;;;;;;;7.82;3.83;;;17.10;99.90;;;;;;2508047;23;20019;-73
2023/08/14 04:12:56;;;;;;;5.78;3.40;;;17.10;99.90;;;;;;2519672;23;20033;-73
2023/08/14 04:13:56;;;;;;;5.65;3.35;;;17.10;99.90;;;;;;2519413;23;20053;-73
2023/08/14 04:15:13;;;;;;;5.10;3.47;;;17.10;99.90;;;;;;2519201;23;20709;-73
2023/08/14 04:16:14;;;;;;;7.13;3.67;;;17.00;99.90;;;;;;2519619;23;20007;-73
2023/08/14 04:17:15;;;;;;;6.03;3.78;;;17.00;99.90;;;;;;2518012;23;20121;-73
2023/08/14 04:18:15;;;;;;;6.97;3.40;;;17.00;99.90;;;;;;2519732;23;20331;-73
2023/08/14 04:19:18;;;;;;;4.90;3.58;;;17.00;99.90;;;;;;2518849;23;20126;-73
2023/08/14 04:20:18;;;;;;;5.82;3.78;;;17.00;99.90;;;;;;2519277;23;20026;-73
2023/08/14 04:21:19;;;;;;;5.90;4.03;;;17.00;99.90;;;;;;2519492;23;20407;-73
2023/08/14 04:22:19;;;;;;;6.63;3.40;;;17.00;99.90;;;;;;2519676;23;20003;-73
2023/08/14 04:23:22;;;;;;;8.30;3.72;;;17.00;99.90;;;;;;2519481;23;20030;-73
2023/08/14 04:24:22;;;;;;;6.55;3.47;;;17.00;99.90;;;;;;2519278;23;20002;-73
2023/08/14 04:25:23;;;;;;;5.32;3.45;;;16.90;99.90;;;;;;2519806;23;20069;-73
2023/08/14 04:26:23;;;;;;;5.80;3.55;;;17.00;99.90;;;;;;2520164;23;20006;-73
2023/08/14 04:27:24;;;;;;;5.93;3.20;;;17.00;99.90;;;;;;2518860;23;20003;-73
2023/08/14 04:28:24;;;;;;;5.03;3.78;;;16.90;99.90;;;;;;2519074;23;20010;-73
2023/08/14 04:29:25;;;;;;;6.90;3.65;;;16.90;99.90;;;;;;2519118;23;20015;-73
2023/08/14 04:30:25;;;;;;;5.90;3.53;;;17.00;99.90;;;;;;2519485;23;20029;-73
2023/08/14 04:31:26;;;;;;;6.43;3.75;;;16.90;99.90;;;;;;2506592;23;20018;-73
2023/08/14 04:32:26;;;;;;;5.53;3.45;;;17.00;99.90;;;;;;2506443;23;20036;-73
2023/08/14 04:33:27;;;;;;;8.35;4.03;;;16.90;99.90;;;;;;2519333;23;20002;-73
2023/08/14 04:34:27;;;;;;;8.10;3.70;;;16.90;99.90;;;;;;2504742;23;20043;-73
2023/08/14 04:35:28;;;;;;;8.55;4.00;;;16.90;99.90;;;;;;2507024;23;20436;-73
2023/08/14 04:36:31;;;;;;;6.88;3.50;;;16.90;99.90;;;;;;2519069;23;20010;-73
2023/08/14 04:37:32;;;;;;;5.28;3.58;;;16.90;99.90;;;;;;2518456;23;20065;-73
2023/08/14 04:38:32;;;;;;;5.60;3.65;;;16.90;99.90;;;;;;2519803;23;20010;-73
2023/08/14 04:39:33;;;;;;;10.75;4.03;;;16.90;99.90;;;;;;2518654;23;20499;-73
2023/08/14 04:40:34;;;;;;;5.78;3.63;;;16.90;99.90;;;;;;2519918;23;20308;-73
2023/08/14 04:41:34;;;;;;;7.93;4.20;;;16.90;99.90;;;;;;2518903;23;20006;-73
2023/08/14 04:42:35;;;;;;;5.43;3.30;;;16.90;99.90;;;;;;2518931;23;20017;-73
2023/08/14 04:43:35;;;;;;;5.95;3.97;;;16.90;99.90;;;;;;2519173;23;20030;-73
2023/08/14 04:44:36;;;;;;;6.15;3.55;;;16.90;99.90;;;;;;2519512;23;19998;-73
2023/08/14 04:45:36;;;;;;;7.57;3.55;;;16.90;99.90;;;;;;2519160;23;20507;-73
2023/08/14 04:46:38;;;;;;;9.35;4.32;;;16.90;99.90;;;;;;2519503;23;20054;-73
2023/08/14 04:47:39;;;;;;;8.52;3.88;;;16.90;99.90;;;;;;2517927;23;20010;-73
2023/08/14 04:48:39;;;;;;;5.78;3.63;;;16.90;99.90;;;;;;2519453;23;20002;-73
2023/08/14 04:49:40;;;;;;;6.50;3.53;;;16.90;99.90;;;;;;2518381;23;20046;-73
2023/08/14 04:50:40;;;;;;;5.80;3.83;;;16.90;99.90;;;;;;2519468;23;20106;-73
2023/08/14 04:51:41;;;;;;;7.55;4.03;;;16.90;99.90;;;;;;2506757;23;20015;-73
2023/08/14 04:52:41;;;;;;;9.60;3.58;;;16.90;99.90;;;;;;2506838;23;20014;-73
2023/08/14 04:53:42;;;;;;;6.40;3.83;;;16.90;99.90;;;;;;2506597;23;20011;-73
2023/08/14 04:54:42;;;;;;;6.63;3.72;;;16.90;99.90;;;;;;2506767;23;20479;-73
2023/08/14 04:55:43;;;;;;;8.45;3.85;;;16.90;99.90;;;;;;2519368;23;20070;-73
2023/08/14 04:56:43;;;;;;;6.88;4.13;;;16.90;99.90;;;;;;2518956;23;20009;-73
2023/08/14 04:57:44;;;;;;;7.13;3.42;;;16.90;99.90;;;;;;2518445;23;20017;-73
2023/08/14 04:58:45;;;;;;;7.53;4.35;;;16.90;99.90;;;;;;2519498;23;20010;-73
2023/08/14 04:59:45;;;;;;;7.10;3.92;;;16.90;99.90;;;;;;2518779;23;20331;-73
2023/08/14 05:00:46;;;;;;;6.80;3.85;;;16.90;99.90;;;;;;2519095;23;20334;-73
2023/08/14 05:01:46;;;;;;;6.63;3.45;;;16.90;99.90;;;;;;2519689;23;20002;-73
2023/08/14 05:02:47;;;;;;;6.07;3.67;;;16.90;99.90;;;;;;2518323;23;20003;-73
2023/08/14 05:03:47;;;;;;;8.60;3.70;;;16.90;99.90;;;;;;2519304;23;20053;-73
2023/08/14 05:04:48;;;;;;;5.95;3.60;;;16.90;99.90;;;;;;2519400;23;20081;-73
2023/08/14 05:05:52;;;;;;;5.75;3.78;;;17.00;99.90;;;;;;2518627;23;20049;-73
2023/08/14 05:06:52;;;;;;;6.22;3.83;;;17.00;99.90;;;;;;2518955;23;19998;-73
2023/08/14 05:07:53;;;;;;;5.70;3.80;;;17.00;99.90;;;;;;2517476;23;20007;-73
2023/08/14 05:08:53;;;;;;;5.45;3.67;;;17.00;99.90;;;;;;2506686;23;20058;-73
2023/08/14 05:09:54;;;;;;;7.18;4.10;;;17.00;99.90;;;;;;2506893;23;20113;-73
2023/08/14 05:10:55;;;;;;;6.28;3.50;;;17.00;99.90;;;;;;2518790;23;20661;-73
2023/08/14 05:11:57;;;;;;;5.78;3.92;;;17.00;99.90;;;;;;2518886;23;20014;-73
2023/08/14 05:12:58;;;;;;;6.63;4.20;;;17.00;99.90;;;;;;2519499;23;20013;-73
2023/08/14 05:13:59;;;;;;;6.55;4.07;;;17.00;99.90;;;;;;2519339;23;20008;-73
2023/08/14 05:14:59;;;;;;;8.70;4.10;;;17.00;99.90;;;;;;2506107;23;20062;-73
2023/08/14 05:16:00;;;;;;;8.98;4.10;;;17.00;99.90;;;;;;2506562;23;20003;-73
2023/08/14 05:17:01;;;;;;;6.45;4.05;;;17.00;99.90;;;;;;2517590;23;20010;-73
2023/08/14 05:18:01;;;;;;;7.60;3.95;;;17.10;99.90;;;;;;2519269;23;20081;-73
2023/08/14 05:19:02;;;;;;;6.57;4.10;;;17.10;99.90;;;;;;2505294;23;20002;-73
2023/08/14 05:20:03;;;;;;;6.15;4.20;;;17.10;99.90;;;;;;2505876;23;20007;-73